sensor_id;sensor_type;location;lat;lon;timestamp;temperature;humidity
70246;SHT30;57637;49.272;8.590;2023-07-28T00:01:13;18.05;90.64
70246;SHT30;57637;49.272;8.590;2023-07-28T00:03:39;18.02;90.60
70246;SHT30;57637;49.272;8.590;2023-07-28T00:06:04;18.02;90.63
70246;SHT30;57637;49.272;8.590;2023-07-28T00:08:29;18.00;90.66
70246;SHT30;57637;49.272;8.590;2023-07-28T00:10:55;18.00;90.75
70246;SHT30;57637;49.272;8.590;2023-07-28T00:13:20;18.02;90.72
70246;SHT30;57637;49.272;8.590;2023-07-28T00:15:46;18.03;90.83
70246;SHT30;57637;49.272;8.590;2023-07-28T00:18:11;18.06;90.83
70246;SHT30;57637;49.272;8.590;2023-07-28T00:20:36;18.06;90.82
70246;SHT30;57637;49.272;8.590;2023-07-28T00:23:02;18.09;90.71
70246;SHT30;57637;49.272;8.590;2023-07-28T00:25:27;18.05;90.63
70246;SHT30;57637;49.272;8.590;2023-07-28T00:27:52;18.09;90.62
70246;SHT30;57637;49.272;8.590;2023-07-28T00:30:18;18.09;90.55
70246;SHT30;57637;49.272;8.590;2023-07-28T00:32:43;18.12;90.47
70246;SHT30;57637;49.272;8.590;2023-07-28T00:35:08;18.07;90.36
70246;SHT30;57637;49.272;8.590;2023-07-28T00:37:34;18.12;90.45
70246;SHT30;57637;49.272;8.590;2023-07-28T00:39:59;18.12;90.55
70246;SHT30;57637;49.272;8.590;2023-07-28T00:42:25;18.09;90.57
70246;SHT30;57637;49.272;8.590;2023-07-28T00:44:50;18.09;90.51
70246;SHT30;57637;49.272;8.590;2023-07-28T00:47:15;18.10;90.53
70246;SHT30;57637;49.272;8.590;2023-07-28T00:49:41;18.12;90.55
70246;SHT30;57637;49.272;8.590;2023-07-28T00:52:07;18.12;90.64
70246;SHT30;57637;49.272;8.590;2023-07-28T00:54:33;18.05;90.71
70246;SHT30;57637;49.272;8.590;2023-07-28T00:56:59;18.07;90.83
70246;SHT30;57637;49.272;8.590;2023-07-28T00:59:25;18.05;90.91
70246;SHT30;57637;49.272;8.590;2023-07-28T01:01:51;18.10;90.93
70246;SHT30;57637;49.272;8.590;2023-07-28T01:04:17;18.12;90.92
70246;SHT30;57637;49.272;8.590;2023-07-28T01:06:47;18.12;90.93
70246;SHT30;57637;49.272;8.590;2023-07-28T01:09:46;18.12;90.93
70246;SHT30;57637;49.272;8.590;2023-07-28T01:12:28;18.13;91.07
70246;SHT30;57637;49.272;8.590;2023-07-28T01:14:53;18.14;91.18
70246;SHT30;57637;49.272;8.590;2023-07-28T01:17:19;18.14;91.22
70246;SHT30;57637;49.272;8.590;2023-07-28T01:19:45;18.12;91.28
70246;SHT30;57637;49.272;8.590;2023-07-28T01:22:16;18.10;91.35
70246;SHT30;57637;49.272;8.590;2023-07-28T01:27:46;18.06;91.36
70246;SHT30;57637;49.272;8.590;2023-07-28T01:30:13;18.05;91.41
70246;SHT30;57637;49.272;8.590;2023-07-28T01:32:39;18.06;91.45
70246;SHT30;57637;49.272;8.590;2023-07-28T01:35:04;18.06;91.53
70246;SHT30;57637;49.272;8.590;2023-07-28T01:37:30;18.06;91.53
70246;SHT30;57637;49.272;8.590;2023-07-28T01:39:56;18.03;91.42
70246;SHT30;57637;49.272;8.590;2023-07-28T01:42:22;18.05;91.45
70246;SHT30;57637;49.272;8.590;2023-07-28T01:44:48;18.00;91.48
70246;SHT30;57637;49.272;8.590;2023-07-28T01:47:14;18.05;91.46
70246;SHT30;57637;49.272;8.590;2023-07-28T01:49:39;18.02;91.43
70246;SHT30;57637;49.272;8.590;2023-07-28T01:52:04;18.02;91.42
70246;SHT30;57637;49.272;8.590;2023-07-28T01:54:30;18.06;91.36
70246;SHT30;57637;49.272;8.590;2023-07-28T01:56:55;18.07;91.38
70246;SHT30;57637;49.272;8.590;2023-07-28T01:59:21;18.06;91.36
70246;SHT30;57637;49.272;8.590;2023-07-28T02:01:46;18.06;91.40
70246;SHT30;57637;49.272;8.590;2023-07-28T02:04:12;18.03;91.38
70246;SHT30;57637;49.272;8.590;2023-07-28T02:06:37;18.05;91.40
70246;SHT30;57637;49.272;8.590;2023-07-28T02:09:03;18.06;91.40
70246;SHT30;57637;49.272;8.590;2023-07-28T02:11:28;18.03;91.40
70246;SHT30;57637;49.272;8.590;2023-07-28T02:13:54;18.03;91.44
70246;SHT30;57637;49.272;8.590;2023-07-28T02:16:19;18.02;91.39
70246;SHT30;57637;49.272;8.590;2023-07-28T02:18:44;18.00;91.37
70246;SHT30;57637;49.272;8.590;2023-07-28T02:21:10;18.02;91.38
70246;SHT30;57637;49.272;8.590;2023-07-28T02:23:38;18.00;91.30
70246;SHT30;57637;49.272;8.590;2023-07-28T02:26:03;17.96;91.26
70246;SHT30;57637;49.272;8.590;2023-07-28T02:28:28;17.99;91.20
70246;SHT30;57637;49.272;8.590;2023-07-28T02:30:54;17.99;91.10
70246;SHT30;57637;49.272;8.590;2023-07-28T02:33:19;18.02;91.04
70246;SHT30;57637;49.272;8.590;2023-07-28T02:35:44;17.99;90.91
70246;SHT30;57637;49.272;8.590;2023-07-28T02:38:10;17.96;90.79
70246;SHT30;57637;49.272;8.590;2023-07-28T02:40:35;17.97;90.71
70246;SHT30;57637;49.272;8.590;2023-07-28T02:43:00;18.00;90.62
70246;SHT30;57637;49.272;8.590;2023-07-28T02:45:25;18.03;90.56
70246;SHT30;57637;49.272;8.590;2023-07-28T02:47:51;18.02;90.49
70246;SHT30;57637;49.272;8.590;2023-07-28T02:50:16;18.06;90.39
70246;SHT30;57637;49.272;8.590;2023-07-28T02:52:42;18.05;90.28
70246;SHT30;57637;49.272;8.590;2023-07-28T02:55:07;18.06;90.18
70246;SHT30;57637;49.272;8.590;2023-07-28T02:57:33;18.09;90.07
70246;SHT30;57637;49.272;8.590;2023-07-28T02:59:58;18.10;90.00
70246;SHT30;57637;49.272;8.590;2023-07-28T03:02:23;18.09;89.88
70246;SHT30;57637;49.272;8.590;2023-07-28T03:04:49;18.09;89.83
70246;SHT30;57637;49.272;8.590;2023-07-28T03:07:14;18.09;89.80
70246;SHT30;57637;49.272;8.590;2023-07-28T03:09:40;18.10;89.74
70246;SHT30;57637;49.272;8.590;2023-07-28T03:12:07;18.12;89.66
70246;SHT30;57637;49.272;8.590;2023-07-28T03:14:32;18.10;89.65
70246;SHT30;57637;49.272;8.590;2023-07-28T03:16:58;18.10;89.62
70246;SHT30;57637;49.272;8.590;2023-07-28T03:19:23;18.10;89.62
70246;SHT30;57637;49.272;8.590;2023-07-28T03:21:49;18.12;89.57
70246;SHT30;57637;49.272;8.590;2023-07-28T03:24:14;18.09;89.53
70246;SHT30;57637;49.272;8.590;2023-07-28T03:26:40;18.12;89.58
70246;SHT30;57637;49.272;8.590;2023-07-28T03:29:05;18.13;89.61
70246;SHT30;57637;49.272;8.590;2023-07-28T03:31:30;18.13;89.59
70246;SHT30;57637;49.272;8.590;2023-07-28T03:33:56;18.13;89.56
70246;SHT30;57637;49.272;8.590;2023-07-28T03:36:21;18.10;89.54
70246;SHT30;57637;49.272;8.590;2023-07-28T03:38:47;18.14;89.56
70246;SHT30;57637;49.272;8.590;2023-07-28T03:41:12;18.16;89.56
70246;SHT30;57637;49.272;8.590;2023-07-28T03:43:39;18.14;89.54
70246;SHT30;57637;49.272;8.590;2023-07-28T03:46:05;18.14;89.55
70246;SHT30;57637;49.272;8.590;2023-07-28T03:48:30;18.16;89.55
70246;SHT30;57637;49.272;8.590;2023-07-28T03:50:56;18.17;89.49
70246;SHT30;57637;49.272;8.590;2023-07-28T03:53:21;18.17;89.41
70246;SHT30;57637;49.272;8.590;2023-07-28T03:55:46;18.17;89.43
70246;SHT30;57637;49.272;8.590;2023-07-28T03:58:12;18.17;89.44
70246;SHT30;57637;49.272;8.590;2023-07-28T04:00:37;18.17;89.41
70246;SHT30;57637;49.272;8.590;2023-07-28T04:03:05;18.14;89.44
70246;SHT30;57637;49.272;8.590;2023-07-28T04:05:31;18.12;89.46
70246;SHT30;57637;49.272;8.590;2023-07-28T04:07:56;18.10;89.56
70246;SHT30;57637;49.272;8.590;2023-07-28T04:10:21;18.09;89.59
70246;SHT30;57637;49.272;8.590;2023-07-28T04:12:47;18.09;89.63
70246;SHT30;57637;49.272;8.590;2023-07-28T04:15:12;18.06;89.63
70246;SHT30;57637;49.272;8.590;2023-07-28T04:17:38;18.05;89.70
70246;SHT30;57637;49.272;8.590;2023-07-28T04:20:03;18.06;89.68
70246;SHT30;57637;49.272;8.590;2023-07-28T04:22:30;18.06;89.74
70246;SHT30;57637;49.272;8.590;2023-07-28T04:24:56;18.06;89.77
70246;SHT30;57637;49.272;8.590;2023-07-28T04:27:21;18.06;89.82
70246;SHT30;57637;49.272;8.590;2023-07-28T04:29:46;18.03;89.95
70246;SHT30;57637;49.272;8.590;2023-07-28T04:32:12;18.05;89.99
70246;SHT30;57637;49.272;8.590;2023-07-28T04:34:40;18.05;89.94
70246;SHT30;57637;49.272;8.590;2023-07-28T04:37:05;18.06;89.84
70246;SHT30;57637;49.272;8.590;2023-07-28T04:39:31;18.07;89.86
70246;SHT30;57637;49.272;8.590;2023-07-28T04:41:56;18.12;89.92
70246;SHT30;57637;49.272;8.590;2023-07-28T04:44:21;18.13;89.90
70246;SHT30;57637;49.272;8.590;2023-07-28T04:46:47;18.16;89.87
70246;SHT30;57637;49.272;8.590;2023-07-28T04:49:15;18.19;89.72
70246;SHT30;57637;49.272;8.590;2023-07-28T04:51:40;18.20;89.75
70246;SHT30;57637;49.272;8.590;2023-07-28T04:54:09;18.27;89.60
70246;SHT30;57637;49.272;8.590;2023-07-28T04:56:34;18.34;89.36
70246;SHT30;57637;49.272;8.590;2023-07-28T04:58:59;18.39;89.30
70246;SHT30;57637;49.272;8.590;2023-07-28T05:01:25;18.39;89.32
70246;SHT30;57637;49.272;8.590;2023-07-28T05:03:50;18.43;89.34
70246;SHT30;57637;49.272;8.590;2023-07-28T05:06:16;18.44;89.24
70246;SHT30;57637;49.272;8.590;2023-07-28T05:08:42;18.44;89.21
70246;SHT30;57637;49.272;8.590;2023-07-28T05:11:08;18.51;89.10
70246;SHT30;57637;49.272;8.590;2023-07-28T05:13:33;18.49;89.02
70246;SHT30;57637;49.272;8.590;2023-07-28T05:15:58;18.46;89.09
70246;SHT30;57637;49.272;8.590;2023-07-28T05:18:24;18.47;89.27
70246;SHT30;57637;49.272;8.590;2023-07-28T05:20:50;18.50;89.27
70246;SHT30;57637;49.272;8.590;2023-07-28T05:23:15;18.50;89.22
70246;SHT30;57637;49.272;8.590;2023-07-28T05:25:41;18.51;89.30
70246;SHT30;57637;49.272;8.590;2023-07-28T05:28:06;18.51;89.37
70246;SHT30;57637;49.272;8.590;2023-07-28T05:30:32;18.51;89.41
70246;SHT30;57637;49.272;8.590;2023-07-28T05:32:57;18.54;89.31
70246;SHT30;57637;49.272;8.590;2023-07-28T05:35:22;18.54;89.23
70246;SHT30;57637;49.272;8.590;2023-07-28T05:37:48;18.58;89.18
70246;SHT30;57637;49.272;8.590;2023-07-28T05:40:13;18.61;89.19
70246;SHT30;57637;49.272;8.590;2023-07-28T05:42:38;18.61;89.13
70246;SHT30;57637;49.272;8.590;2023-07-28T05:45:04;18.60;88.98
70246;SHT30;57637;49.272;8.590;2023-07-28T05:47:30;18.57;89.04
70246;SHT30;57637;49.272;8.590;2023-07-28T05:49:55;18.57;89.14
70246;SHT30;57637;49.272;8.590;2023-07-28T05:52:20;18.57;89.18
70246;SHT30;57637;49.272;8.590;2023-07-28T05:54:47;18.57;89.16
70246;SHT30;57637;49.272;8.590;2023-07-28T05:57:13;18.57;89.19
70246;SHT30;57637;49.272;8.590;2023-07-28T05:59:38;18.56;89.13
70246;SHT30;57637;49.272;8.590;2023-07-28T06:02:04;18.51;89.20
70246;SHT30;57637;49.272;8.590;2023-07-28T06:04:29;18.53;89.24
70246;SHT30;57637;49.272;8.590;2023-07-28T06:06:55;18.56;89.29
70246;SHT30;57637;49.272;8.590;2023-07-28T06:09:20;18.54;89.29
70246;SHT30;57637;49.272;8.590;2023-07-28T06:11:45;18.54;89.38
70246;SHT30;57637;49.272;8.590;2023-07-28T06:14:10;18.57;89.40
70246;SHT30;57637;49.272;8.590;2023-07-28T06:16:36;18.63;89.37
70246;SHT30;57637;49.272;8.590;2023-07-28T06:19:01;18.71;89.33
70246;SHT30;57637;49.272;8.590;2023-07-28T06:21:27;18.75;89.22
70246;SHT30;57637;49.272;8.590;2023-07-28T06:23:52;18.84;89.14
70246;SHT30;57637;49.272;8.590;2023-07-28T06:26:18;18.90;89.10
70246;SHT30;57637;49.272;8.590;2023-07-28T06:28:43;18.92;89.00
70246;SHT30;57637;49.272;8.590;2023-07-28T06:31:08;18.94;88.89
70246;SHT30;57637;49.272;8.590;2023-07-28T06:33:34;19.07;88.86
70246;SHT30;57637;49.272;8.590;2023-07-28T06:36:00;19.10;88.82
70246;SHT30;57637;49.272;8.590;2023-07-28T06:38:25;19.16;88.70
70246;SHT30;57637;49.272;8.590;2023-07-28T06:40:50;19.22;88.54
70246;SHT30;57637;49.272;8.590;2023-07-28T06:43:16;19.32;88.41
70246;SHT30;57637;49.272;8.590;2023-07-28T06:45:43;19.41;88.25
70246;SHT30;57637;49.272;8.590;2023-07-28T06:48:08;19.48;88.24
70246;SHT30;57637;49.272;8.590;2023-07-28T06:50:36;19.56;88.13
70246;SHT30;57637;49.272;8.590;2023-07-28T06:53:02;19.67;87.85
70246;SHT30;57637;49.272;8.590;2023-07-28T06:55:27;19.76;87.69
70246;SHT30;57637;49.272;8.590;2023-07-28T06:57:53;19.83;87.62
70246;SHT30;57637;49.272;8.590;2023-07-28T07:00:18;19.90;87.51
70246;SHT30;57637;49.272;8.590;2023-07-28T07:02:44;19.94;87.45
70246;SHT30;57637;49.272;8.590;2023-07-28T07:05:09;20.00;87.29
70246;SHT30;57637;49.272;8.590;2023-07-28T07:07:35;19.97;87.17
70246;SHT30;57637;49.272;8.590;2023-07-28T07:10:01;20.04;87.33
70246;SHT30;57637;49.272;8.590;2023-07-28T07:12:26;20.03;87.34
70246;SHT30;57637;49.272;8.590;2023-07-28T07:14:52;20.01;87.26
70246;SHT30;57637;49.272;8.590;2023-07-28T07:17:17;20.00;87.39
70246;SHT30;57637;49.272;8.590;2023-07-28T07:19:43;19.98;87.36
70246;SHT30;57637;49.272;8.590;2023-07-28T07:22:08;19.94;87.51
70246;SHT30;57637;49.272;8.590;2023-07-28T07:24:34;19.97;87.63
70246;SHT30;57637;49.272;8.590;2023-07-28T07:26:59;19.97;87.48
70246;SHT30;57637;49.272;8.590;2023-07-28T07:29:25;19.94;87.51
70246;SHT30;57637;49.272;8.590;2023-07-28T07:31:50;19.92;87.52
70246;SHT30;57637;49.272;8.590;2023-07-28T07:34:20;19.94;87.49
70246;SHT30;57637;49.272;8.590;2023-07-28T07:36:46;19.93;87.34
70246;SHT30;57637;49.272;8.590;2023-07-28T07:39:12;19.96;87.42
70246;SHT30;57637;49.272;8.590;2023-07-28T07:41:37;20.03;87.49
70246;SHT30;57637;49.272;8.590;2023-07-28T07:44:02;20.14;87.32
70246;SHT30;57637;49.272;8.590;2023-07-28T07:46:28;20.31;87.30
70246;SHT30;57637;49.272;8.590;2023-07-28T07:48:53;20.35;86.96
70246;SHT30;57637;49.272;8.590;2023-07-28T07:51:19;20.34;86.94
70246;SHT30;57637;49.272;8.590;2023-07-28T07:53:44;20.34;87.09
70246;SHT30;57637;49.272;8.590;2023-07-28T07:56:10;20.28;86.96
70246;SHT30;57637;49.272;8.590;2023-07-28T07:58:36;20.31;87.04
70246;SHT30;57637;49.272;8.590;2023-07-28T08:01:02;20.28;86.98
70246;SHT30;57637;49.272;8.590;2023-07-28T08:03:28;20.25;86.96
70246;SHT30;57637;49.272;8.590;2023-07-28T08:05:53;20.20;86.92
70246;SHT30;57637;49.272;8.590;2023-07-28T08:08:19;20.12;86.94
70246;SHT30;57637;49.272;8.590;2023-07-28T08:10:48;20.27;87.35
70246;SHT30;57637;49.272;8.590;2023-07-28T08:13:14;20.48;87.18
70246;SHT30;57637;49.272;8.590;2023-07-28T08:15:42;20.84;86.71
70246;SHT30;57637;49.272;8.590;2023-07-28T08:18:08;21.16;86.10
70246;SHT30;57637;49.272;8.590;2023-07-28T08:20:33;21.43;85.22
70246;SHT30;57637;49.272;8.590;2023-07-28T08:22:59;21.68;84.68
70246;SHT30;57637;49.272;8.590;2023-07-28T08:25:24;21.87;84.22
70246;SHT30;57637;49.272;8.590;2023-07-28T08:27:49;22.00;84.09
70246;SHT30;57637;49.272;8.590;2023-07-28T08:30:15;22.18;83.71
70246;SHT30;57637;49.272;8.590;2023-07-28T08:32:41;22.39;83.57
70246;SHT30;57637;49.272;8.590;2023-07-28T08:35:07;22.45;83.28
70246;SHT30;57637;49.272;8.590;2023-07-28T08:37:33;22.68;82.71
70246;SHT30;57637;49.272;8.590;2023-07-28T08:39:58;22.88;82.37
70246;SHT30;57637;49.272;8.590;2023-07-28T08:42:24;23.02;81.69
70246;SHT30;57637;49.272;8.590;2023-07-28T08:44:49;23.03;81.84
70246;SHT30;57637;49.272;8.590;2023-07-28T08:47:17;23.02;81.47
70246;SHT30;57637;49.272;8.590;2023-07-28T08:49:43;22.76;81.32
70246;SHT30;57637;49.272;8.590;2023-07-28T08:52:09;22.77;81.66
70246;SHT30;57637;49.272;8.590;2023-07-28T08:54:34;22.71;82.07
70246;SHT30;57637;49.272;8.590;2023-07-28T08:57:00;22.79;81.00
70246;SHT30;57637;49.272;8.590;2023-07-28T08:59:26;23.02;81.24
70246;SHT30;57637;49.272;8.590;2023-07-28T09:01:53;23.23;81.07
70246;SHT30;57637;49.272;8.590;2023-07-28T09:04:20;23.30;80.04
70246;SHT30;57637;49.272;8.590;2023-07-28T09:06:47;23.39;80.67
70246;SHT30;57637;49.272;8.590;2023-07-28T09:09:14;23.67;80.33
70246;SHT30;57637;49.272;8.590;2023-07-28T09:11:47;23.85;80.03
70246;SHT30;57637;49.272;8.590;2023-07-28T09:14:15;24.00;79.61
70246;SHT30;57637;49.272;8.590;2023-07-28T09:16:51;24.11;78.56
70246;SHT30;57637;49.272;8.590;2023-07-28T09:19:17;24.14;78.41
70246;SHT30;57637;49.272;8.590;2023-07-28T09:21:45;23.86;77.49
70246;SHT30;57637;49.272;8.590;2023-07-28T09:24:21;24.01;77.74
70246;SHT30;57637;49.272;8.590;2023-07-28T09:26:47;24.35;76.69
70246;SHT30;57637;49.272;8.590;2023-07-28T09:29:14;24.94;76.27
70246;SHT30;57637;49.272;8.590;2023-07-28T09:31:44;24.87;75.37
70246;SHT30;57637;49.272;8.590;2023-07-28T09:34:11;24.93;75.09
70246;SHT30;57637;49.272;8.590;2023-07-28T09:36:38;25.17;73.73
70246;SHT30;57637;49.272;8.590;2023-07-28T09:39:05;25.03;73.33
70246;SHT30;57637;49.272;8.590;2023-07-28T09:41:34;25.00;73.37
70246;SHT30;57637;49.272;8.590;2023-07-28T09:44:01;24.75;74.12
70246;SHT30;57637;49.272;8.590;2023-07-28T09:46:27;25.06;72.79
70246;SHT30;57637;49.272;8.590;2023-07-28T09:48:55;24.77;73.05
70246;SHT30;57637;49.272;8.590;2023-07-28T09:51:22;24.75;73.62
70246;SHT30;57637;49.272;8.590;2023-07-28T09:54:03;24.57;73.63
70246;SHT30;57637;49.272;8.590;2023-07-28T09:56:31;24.18;75.57
70246;SHT30;57637;49.272;8.590;2023-07-28T09:58:58;23.78;76.22
70246;SHT30;57637;49.272;8.590;2023-07-28T10:01:24;23.93;76.26
70246;SHT30;57637;49.272;8.590;2023-07-28T10:03:50;24.14;75.31
70246;SHT30;57637;49.272;8.590;2023-07-28T10:06:16;24.33;74.91
70246;SHT30;57637;49.272;8.590;2023-07-28T10:08:44;24.40;74.75
70246;SHT30;57637;49.272;8.590;2023-07-28T10:11:12;24.48;73.48
70246;SHT30;57637;49.272;8.590;2023-07-28T10:13:40;24.57;74.35
70246;SHT30;57637;49.272;8.590;2023-07-28T10:16:11;24.53;73.75
70246;SHT30;57637;49.272;8.590;2023-07-28T10:18:37;24.55;73.86
70246;SHT30;57637;49.272;8.590;2023-07-28T10:21:06;24.55;73.71
70246;SHT30;57637;49.272;8.590;2023-07-28T10:23:38;24.48;74.68
70246;SHT30;57637;49.272;8.590;2023-07-28T10:26:04;24.56;74.61
70246;SHT30;57637;49.272;8.590;2023-07-28T10:28:36;24.65;73.83
70246;SHT30;57637;49.272;8.590;2023-07-28T10:31:04;24.26;74.78
70246;SHT30;57637;49.272;8.590;2023-07-28T10:36:00;24.35;74.28
70246;SHT30;57637;49.272;8.590;2023-07-28T10:38:39;24.46;73.20
70246;SHT30;57637;49.272;8.590;2023-07-28T10:41:05;24.45;73.77
70246;SHT30;57637;49.272;8.590;2023-07-28T10:43:32;24.67;73.38
70246;SHT30;57637;49.272;8.590;2023-07-28T10:45:58;24.96;72.85
70246;SHT30;57637;49.272;8.590;2023-07-28T10:48:25;25.13;72.23
70246;SHT30;57637;49.272;8.590;2023-07-28T10:50:50;25.23;71.88
70246;SHT30;57637;49.272;8.590;2023-07-28T10:53:16;24.97;72.20
70246;SHT30;57637;49.272;8.590;2023-07-28T10:55:42;24.60;72.17
70246;SHT30;57637;49.272;8.590;2023-07-28T10:58:08;24.62;73.23
70246;SHT30;57637;49.272;8.590;2023-07-28T11:00:33;24.12;74.61
70246;SHT30;57637;49.272;8.590;2023-07-28T11:02:58;23.95;74.54
70246;SHT30;57637;49.272;8.590;2023-07-28T11:05:28;23.74;75.50
70246;SHT30;57637;49.272;8.590;2023-07-28T11:07:55;23.55;76.41
70246;SHT30;57637;49.272;8.590;2023-07-28T11:10:22;23.30;77.02
70246;SHT30;57637;49.272;8.590;2023-07-28T11:12:49;23.09;77.70
70246;SHT30;57637;49.272;8.590;2023-07-28T11:15:16;23.09;77.58
70246;SHT30;57637;49.272;8.590;2023-07-28T11:17:46;22.85;78.55
70246;SHT30;57637;49.272;8.590;2023-07-28T11:20:14;22.71;79.04
70246;SHT30;57637;49.272;8.590;2023-07-28T11:22:52;22.73;79.01
70246;SHT30;57637;49.272;8.590;2023-07-28T11:25:18;23.00;78.44
70246;SHT30;57637;49.272;8.590;2023-07-28T11:27:44;23.36;77.38
70246;SHT30;57637;49.272;8.590;2023-07-28T11:30:11;23.53;76.99
70246;SHT30;57637;49.272;8.590;2023-07-28T11:32:37;23.73;76.12
70246;SHT30;57637;49.272;8.590;2023-07-28T11:35:04;23.77;75.66
70246;SHT30;57637;49.272;8.590;2023-07-28T11:37:34;23.78;75.69
70246;SHT30;57637;49.272;8.590;2023-07-28T11:40:02;23.74;75.73
70246;SHT30;57637;49.272;8.590;2023-07-28T11:42:35;23.53;76.34
70246;SHT30;57637;49.272;8.590;2023-07-28T11:45:03;23.63;76.29
70246;SHT30;57637;49.272;8.590;2023-07-28T11:47:29;23.64;76.37
70246;SHT30;57637;49.272;8.590;2023-07-28T11:49:55;23.61;76.38
70246;SHT30;57637;49.272;8.590;2023-07-28T11:52:23;23.58;76.34
70246;SHT30;57637;49.272;8.590;2023-07-28T11:54:51;23.40;77.23
70246;SHT30;57637;49.272;8.590;2023-07-28T11:57:17;23.34;77.35
70246;SHT30;57637;49.272;8.590;2023-07-28T11:59:42;23.23;77.50
70246;SHT30;57637;49.272;8.590;2023-07-28T12:02:09;23.31;77.71
70246;SHT30;57637;49.272;8.590;2023-07-28T12:04:38;23.27;77.72
70246;SHT30;57637;49.272;8.590;2023-07-28T12:07:12;23.00;77.49
70246;SHT30;57637;49.272;8.590;2023-07-28T12:12:11;22.56;78.73
70246;SHT30;57637;49.272;8.590;2023-07-28T12:14:47;22.59;78.50
70246;SHT30;57637;49.272;8.590;2023-07-28T12:17:23;22.53;78.20
70246;SHT30;57637;49.272;8.590;2023-07-28T12:20:04;22.55;78.44
70246;SHT30;57637;49.272;8.590;2023-07-28T12:22:40;22.63;78.17
70246;SHT30;57637;49.272;8.590;2023-07-28T12:25:07;22.49;79.27
70246;SHT30;57637;49.272;8.590;2023-07-28T12:27:33;22.47;79.57
70246;SHT30;57637;49.272;8.590;2023-07-28T12:29:59;22.45;79.58
70246;SHT30;57637;49.272;8.590;2023-07-28T12:32:25;22.35;79.79
70246;SHT30;57637;49.272;8.590;2023-07-28T12:34:51;22.28;80.15
70246;SHT30;57637;49.272;8.590;2023-07-28T12:37:17;22.20;81.12
70246;SHT30;57637;49.272;8.590;2023-07-28T12:39:43;22.10;81.52
70246;SHT30;57637;49.272;8.590;2023-07-28T12:42:09;22.10;81.84
70246;SHT30;57637;49.272;8.590;2023-07-28T12:44:35;22.01;82.07
70246;SHT30;57637;49.272;8.590;2023-07-28T12:47:02;21.97;82.58
70246;SHT30;57637;49.272;8.590;2023-07-28T12:49:28;21.88;83.23
70246;SHT30;57637;49.272;8.590;2023-07-28T12:51:54;21.91;83.56
70246;SHT30;57637;49.272;8.590;2023-07-28T12:54:21;21.98;83.06
70246;SHT30;57637;49.272;8.590;2023-07-28T12:56:47;21.88;83.29
70246;SHT30;57637;49.272;8.590;2023-07-28T12:59:13;21.73;84.11
70246;SHT30;57637;49.272;8.590;2023-07-28T13:01:39;21.80;83.81
70246;SHT30;57637;49.272;8.590;2023-07-28T13:04:04;21.80;83.84
70246;SHT30;57637;49.272;8.590;2023-07-28T13:06:29;21.88;83.63
70246;SHT30;57637;49.272;8.590;2023-07-28T13:08:55;21.86;83.92
70246;SHT30;57637;49.272;8.590;2023-07-28T13:11:20;21.83;83.66
70246;SHT30;57637;49.272;8.590;2023-07-28T13:13:45;21.74;84.41
70246;SHT30;57637;49.272;8.590;2023-07-28T13:16:11;21.68;84.56
70246;SHT30;57637;49.272;8.590;2023-07-28T13:18:36;21.60;84.95
70246;SHT30;57637;49.272;8.590;2023-07-28T13:21:02;21.49;85.58
70246;SHT30;57637;49.272;8.590;2023-07-28T13:23:27;21.43;85.42
70246;SHT30;57637;49.272;8.590;2023-07-28T13:25:53;21.46;85.00
70246;SHT30;57637;49.272;8.590;2023-07-28T13:28:18;21.53;84.78
70246;SHT30;57637;49.272;8.590;2023-07-28T13:30:44;21.30;84.64
70246;SHT30;57637;49.272;8.590;2023-07-28T13:33:09;21.33;84.44
70246;SHT30;57637;49.272;8.590;2023-07-28T13:35:35;21.36;84.29
70246;SHT30;57637;49.272;8.590;2023-07-28T13:38:00;21.36;84.43
70246;SHT30;57637;49.272;8.590;2023-07-28T13:40:25;21.33;84.47
70246;SHT30;57637;49.272;8.590;2023-07-28T13:42:51;21.25;84.52
70246;SHT30;57637;49.272;8.590;2023-07-28T13:45:16;21.26;84.58
70246;SHT30;57637;49.272;8.590;2023-07-28T13:47:42;21.19;84.65
70246;SHT30;57637;49.272;8.590;2023-07-28T13:50:07;21.20;84.74
70246;SHT30;57637;49.272;8.590;2023-07-28T13:52:33;21.19;84.99
70246;SHT30;57637;49.272;8.590;2023-07-28T13:54:58;21.13;85.27
70246;SHT30;57637;49.272;8.590;2023-07-28T13:57:24;21.19;84.95
70246;SHT30;57637;49.272;8.590;2023-07-28T13:59:49;21.15;85.48
70246;SHT30;57637;49.272;8.590;2023-07-28T14:02:16;21.13;85.32
70246;SHT30;57637;49.272;8.590;2023-07-28T14:04:43;21.25;85.30
70246;SHT30;57637;49.272;8.590;2023-07-28T14:07:09;21.16;85.59
70246;SHT30;57637;49.272;8.590;2023-07-28T14:09:35;21.27;85.13
70246;SHT30;57637;49.272;8.590;2023-07-28T14:12:01;21.32;84.84
70246;SHT30;57637;49.272;8.590;2023-07-28T14:14:27;21.33;85.14
70246;SHT30;57637;49.272;8.590;2023-07-28T14:16:53;21.29;85.18
70246;SHT30;57637;49.272;8.590;2023-07-28T14:19:18;21.25;85.35
70246;SHT30;57637;49.272;8.590;2023-07-28T14:21:44;21.36;85.17
70246;SHT30;57637;49.272;8.590;2023-07-28T14:24:09;21.46;84.83
70246;SHT30;57637;49.272;8.590;2023-07-28T14:26:34;21.54;84.78
70246;SHT30;57637;49.272;8.590;2023-07-28T14:29:00;21.60;84.81
70246;SHT30;57637;49.272;8.590;2023-07-28T14:31:25;21.63;85.07
70246;SHT30;57637;49.272;8.590;2023-07-28T14:33:51;21.61;84.60
70246;SHT30;57637;49.272;8.590;2023-07-28T14:36:16;21.61;85.07
70246;SHT30;57637;49.272;8.590;2023-07-28T14:38:42;21.57;84.78
70246;SHT30;57637;49.272;8.590;2023-07-28T14:41:07;21.61;84.66
70246;SHT30;57637;49.272;8.590;2023-07-28T14:43:33;21.57;84.82
70246;SHT30;57637;49.272;8.590;2023-07-28T14:45:58;21.57;84.67
70246;SHT30;57637;49.272;8.590;2023-07-28T14:48:24;21.57;84.64
70246;SHT30;57637;49.272;8.590;2023-07-28T14:50:49;21.63;84.49
70246;SHT30;57637;49.272;8.590;2023-07-28T14:53:34;21.54;84.97
70246;SHT30;57637;49.272;8.590;2023-07-28T14:56:05;21.46;84.90
70246;SHT30;57637;49.272;8.590;2023-07-28T14:58:31;21.45;84.87
70246;SHT30;57637;49.272;8.590;2023-07-28T15:00:57;21.36;85.21
70246;SHT30;57637;49.272;8.590;2023-07-28T15:03:24;21.32;85.37
70246;SHT30;57637;49.272;8.590;2023-07-28T15:05:51;21.26;85.37
70246;SHT30;57637;49.272;8.590;2023-07-28T15:08:17;21.23;85.38
70246;SHT30;57637;49.272;8.590;2023-07-28T15:10:42;21.15;85.72
70246;SHT30;57637;49.272;8.590;2023-07-28T15:13:08;21.03;85.65
70246;SHT30;57637;49.272;8.590;2023-07-28T15:15:34;21.02;85.78
70246;SHT30;57637;49.272;8.590;2023-07-28T15:17:59;20.94;86.17
70246;SHT30;57637;49.272;8.590;2023-07-28T15:20:24;20.91;86.03
70246;SHT30;57637;49.272;8.590;2023-07-28T15:22:50;20.94;85.86
70246;SHT30;57637;49.272;8.590;2023-07-28T15:25:15;20.86;85.87
70246;SHT30;57637;49.272;8.590;2023-07-28T15:27:41;20.81;85.99
70246;SHT30;57637;49.272;8.590;2023-07-28T15:30:07;20.88;85.98
70246;SHT30;57637;49.272;8.590;2023-07-28T15:32:33;20.84;86.15